sensor_id;sensor_type;location;lat;lon;timestamp;pressure;altitude;pressure_sealevel;temperature;humidity
21904;BME280;11116;51.554;7.812;2022-09-01T00:01:01;101228.38;;;12.99;91.54
21904;BME280;11116;51.554;7.812;2022-09-01T00:03:30;101234.06;;;12.94;92.07
21904;BME280;11116;51.554;7.812;2022-09-01T00:05:57;101236.44;;;12.77;93.29
21904;BME280;11116;51.554;7.812;2022-09-01T00:08:24;101227.25;;;12.81;93.82
21904;BME280;11116;51.554;7.812;2022-09-01T00:10:50;101241.97;;;12.85;93.67
21904;BME280;11116;51.554;7.812;2022-09-01T00:13:17;101234.84;;;12.85;94.00
21904;BME280;11116;51.554;7.812;2022-09-01T00:15:44;101234.16;;;12.72;94.74
21904;BME280;11116;51.554;7.812;2022-09-01T00:18:11;101236.31;;;12.78;95.38
21904;BME280;11116;51.554;7.812;2022-09-01T00:20:39;101233.53;;;12.80;95.08
21904;BME280;11116;51.554;7.812;2022-09-01T00:23:06;101234.91;;;12.95;94.75
21904;BME280;11116;51.554;7.812;2022-09-01T00:25:32;101237.81;;;12.92;94.58
21904;BME280;11116;51.554;7.812;2022-09-01T00:27:59;101236.16;;;12.91;95.16
21904;BME280;11116;51.554;7.812;2022-09-01T00:30:29;101237.81;;;12.92;95.53
21904;BME280;11116;51.554;7.812;2022-09-01T00:32:56;101234.13;;;12.83;95.75
21904;BME280;11116;51.554;7.812;2022-09-01T00:35:23;101239.34;;;12.74;97.13
21904;BME280;11116;51.554;7.812;2022-09-01T00:37:51;101242.88;;;12.63;97.37
21904;BME280;11116;51.554;7.812;2022-09-01T00:40:18;101240.41;;;12.51;98.27
21904;BME280;11116;51.554;7.812;2022-09-01T00:42:45;101237.28;;;12.45;99.22
21904;BME280;11116;51.554;7.812;2022-09-01T00:45:13;101240.66;;;12.48;99.26
21904;BME280;11116;51.554;7.812;2022-09-01T00:47:41;101239.47;;;12.40;98.64
21904;BME280;11116;51.554;7.812;2022-09-01T00:50:09;101232.50;;;12.28;97.35
21904;BME280;11116;51.554;7.812;2022-09-01T00:52:44;101230.50;;;12.21;98.10
21904;BME280;11116;51.554;7.812;2022-09-01T00:55:16;101238.31;;;12.11;98.51
21904;BME280;11116;51.554;7.812;2022-09-01T00:57:44;101244.00;;;12.07;99.72
21904;BME280;11116;51.554;7.812;2022-09-01T01:00:14;101239.41;;;12.09;99.71
21904;BME280;11116;51.554;7.812;2022-09-01T01:02:42;101240.25;;;12.09;99.62
21904;BME280;11116;51.554;7.812;2022-09-01T01:05:12;101240.38;;;12.08;99.67
21904;BME280;11116;51.554;7.812;2022-09-01T01:07:40;101237.00;;;12.06;99.45
21904;BME280;11116;51.554;7.812;2022-09-01T01:10:10;101240.50;;;12.06;98.99
21904;BME280;11116;51.554;7.812;2022-09-01T01:12:38;101231.97;;;12.03;98.44
21904;BME280;11116;51.554;7.812;2022-09-01T01:15:08;101237.72;;;12.08;97.49
21904;BME280;11116;51.554;7.812;2022-09-01T01:17:35;101241.72;;;11.91;98.28
21904;BME280;11116;51.554;7.812;2022-09-01T01:20:03;101237.38;;;11.90;98.57
21904;BME280;11116;51.554;7.812;2022-09-01T01:22:55;101237.88;;;11.84;98.84
21904;BME280;11116;51.554;7.812;2022-09-01T01:25:35;101241.47;;;11.83;98.62
21904;BME280;11116;51.554;7.812;2022-09-01T01:28:07;101241.25;;;11.86;99.04
21904;BME280;11116;51.554;7.812;2022-09-01T01:30:35;101241.47;;;11.83;99.59
21904;BME280;11116;51.554;7.812;2022-09-01T01:33:05;101246.31;;;11.78;100.00
21904;BME280;11116;51.554;7.812;2022-09-01T01:35:32;101246.78;;;11.72;100.00
21904;BME280;11116;51.554;7.812;2022-09-01T01:38:00;101246.03;;;11.70;100.00
21904;BME280;11116;51.554;7.812;2022-09-01T01:40:28;101244.13;;;11.72;100.00
21904;BME280;11116;51.554;7.812;2022-09-01T01:42:57;101258.06;;;11.63;100.00
21904;BME280;11116;51.554;7.812;2022-09-01T01:45:26;101247.09;;;11.56;100.00
21904;BME280;11116;51.554;7.812;2022-09-01T01:47:54;101248.66;;;11.59;100.00
21904;BME280;11116;51.554;7.812;2022-09-01T01:50:25;101261.41;;;11.54;100.00
21904;BME280;11116;51.554;7.812;2022-09-01T01:52:52;101255.75;;;11.47;100.00
21904;BME280;11116;51.554;7.812;2022-09-01T01:55:19;101257.53;;;11.47;100.00
21904;BME280;11116;51.554;7.812;2022-09-01T01:57:52;101259.22;;;11.48;100.00
21904;BME280;11116;51.554;7.812;2022-09-01T02:00:23;101257.53;;;11.35;100.00
21904;BME280;11116;51.554;7.812;2022-09-01T02:02:52;101257.03;;;11.30;100.00
21904;BME280;11116;51.554;7.812;2022-09-01T02:05:22;101259.09;;;11.38;100.00
21904;BME280;11116;51.554;7.812;2022-09-01T02:07:52;101247.56;;;11.39;100.00
21904;BME280;11116;51.554;7.812;2022-09-01T02:10:23;101256.81;;;11.33;100.00
21904;BME280;11116;51.554;7.812;2022-09-01T02:12:50;101248.50;;;11.27;100.00
21904;BME280;11116;51.554;7.812;2022-09-01T02:15:17;101251.84;;;11.18;100.00
21904;BME280;11116;51.554;7.812;2022-09-01T02:17:45;101256.25;;;11.06;100.00
21904;BME280;11116;51.554;7.812;2022-09-01T02:20:14;101260.84;;;11.15;100.00
21904;BME280;11116;51.554;7.812;2022-09-01T02:22:41;101252.91;;;11.15;100.00
21904;BME280;11116;51.554;7.812;2022-09-01T02:25:10;101251.75;;;11.19;100.00
21904;BME280;11116;51.554;7.812;2022-09-01T02:27:41;101247.06;;;11.23;100.00
21904;BME280;11116;51.554;7.812;2022-09-01T02:30:09;101253.16;;;11.23;100.00
21904;BME280;11116;51.554;7.812;2022-09-01T02:32:37;101251.97;;;11.16;100.00
21904;BME280;11116;51.554;7.812;2022-09-01T02:35:08;101260.75;;;11.17;100.00
21904;BME280;11116;51.554;7.812;2022-09-01T02:37:37;101249.09;;;11.19;100.00
21904;BME280;11116;51.554;7.812;2022-09-01T02:40:07;101249.31;;;11.16;100.00
21904;BME280;11116;51.554;7.812;2022-09-01T02:42:38;101256.53;;;11.14;100.00
21904;BME280;11116;51.554;7.812;2022-09-01T02:45:08;101250.63;;;11.11;100.00
21904;BME280;11116;51.554;7.812;2022-09-01T02:47:42;101248.59;;;11.14;100.00
21904;BME280;11116;51.554;7.812;2022-09-01T02:50:13;101246.91;;;11.13;100.00
21904;BME280;11116;51.554;7.812;2022-09-01T02:52:43;101250.28;;;11.15;100.00
21904;BME280;11116;51.554;7.812;2022-09-01T02:55:11;101252.06;;;11.15;100.00
21904;BME280;11116;51.554;7.812;2022-09-01T02:57:38;101250.28;;;11.15;100.00
21904;BME280;11116;51.554;7.812;2022-09-01T03:00:07;101251.47;;;11.11;100.00
21904;BME280;11116;51.554;7.812;2022-09-01T03:02:50;101254.34;;;11.08;100.00
21904;BME280;11116;51.554;7.812;2022-09-01T03:05:20;101245.81;;;11.05;100.00
21904;BME280;11116;51.554;7.812;2022-09-01T03:07:52;101247.25;;;11.09;100.00
21904;BME280;11116;51.554;7.812;2022-09-01T03:10:26;101251.81;;;11.07;100.00
21904;BME280;11116;51.554;7.812;2022-09-01T03:13:00;101252.66;;;11.07;100.00
21904;BME280;11116;51.554;7.812;2022-09-01T03:15:28;101244.69;;;10.96;100.00
21904;BME280;11116;51.554;7.812;2022-09-01T03:17:55;101251.63;;;9.90;100.00
21904;BME280;11116;51.554;7.812;2022-09-01T03:20:28;101254.53;;;9.74;100.00
21904;BME280;11116;51.554;7.812;2022-09-01T03:22:55;101260.81;;;9.97;100.00
21904;BME280;11116;51.554;7.812;2022-09-01T03:25:24;101265.94;;;10.11;100.00
21904;BME280;11116;51.554;7.812;2022-09-01T03:27:53;101267.09;;;10.32;100.00
21904;BME280;11116;51.554;7.812;2022-09-01T03:30:20;101259.22;;;10.43;100.00
21904;BME280;11116;51.554;7.812;2022-09-01T03:32:47;101267.06;;;10.45;100.00
21904;BME280;11116;51.554;7.812;2022-09-01T03:35:14;101267.84;;;10.58;100.00
21904;BME280;11116;51.554;7.812;2022-09-01T03:37:43;101263.81;;;10.65;100.00
21904;BME280;11116;51.554;7.812;2022-09-01T03:40:11;101257.31;;;10.69;100.00
21904;BME280;11116;51.554;7.812;2022-09-01T03:42:39;101257.31;;;10.69;100.00
21904;BME280;11116;51.554;7.812;2022-09-01T03:45:07;101262.06;;;10.76;100.00
21904;BME280;11116;51.554;7.812;2022-09-01T03:47:38;101258.78;;;10.73;100.00
21904;BME280;11116;51.554;7.812;2022-09-01T03:50:09;101257.81;;;10.74;100.00
21904;BME280;11116;51.554;7.812;2022-09-01T03:52:44;101259.19;;;10.80;100.00
21904;BME280;11116;51.554;7.812;2022-09-01T03:55:10;101255.06;;;10.75;100.00
21904;BME280;11116;51.554;7.812;2022-09-01T03:57:38;101256.88;;;10.75;100.00
21904;BME280;11116;51.554;7.812;2022-09-01T04:00:08;101263.31;;;10.71;100.00
21904;BME280;11116;51.554;7.812;2022-09-01T04:02:48;101263.31;;;10.71;100.00
21904;BME280;11116;51.554;7.812;2022-09-01T04:05:17;101260.34;;;10.28;100.00
21904;BME280;11116;51.554;7.812;2022-09-01T04:07:47;101264.88;;;9.64;100.00
21904;BME280;11116;51.554;7.812;2022-09-01T04:10:15;101257.41;;;9.46;100.00
21904;BME280;11116;51.554;7.812;2022-09-01T04:12:42;101265.06;;;9.24;100.00
21904;BME280;11116;51.554;7.812;2022-09-01T04:15:10;101260.19;;;9.18;100.00
21904;BME280;11116;51.554;7.812;2022-09-01T04:17:38;101264.44;;;9.07;100.00
21904;BME280;11116;51.554;7.812;2022-09-01T04:20:22;101261.78;;;9.20;100.00
21904;BME280;11116;51.554;7.812;2022-09-01T04:22:51;101267.00;;;9.34;100.00
21904;BME280;11116;51.554;7.812;2022-09-01T04:25:19;101265.19;;;9.35;100.00
21904;BME280;11116;51.554;7.812;2022-09-01T04:27:52;101262.88;;;9.30;100.00
21904;BME280;11116;51.554;7.812;2022-09-01T04:30:20;101261.69;;;9.47;100.00
21904;BME280;11116;51.554;7.812;2022-09-01T04:32:57;101262.13;;;9.53;100.00
21904;BME280;11116;51.554;7.812;2022-09-01T04:35:23;101267.28;;;9.55;100.00
21904;BME280;11116;51.554;7.812;2022-09-01T04:37:58;101262.00;;;9.55;100.00
21904;BME280;11116;51.554;7.812;2022-09-01T04:40:26;101263.28;;;9.62;100.00
21904;BME280;11116;51.554;7.812;2022-09-01T04:42:54;101263.41;;;9.60;100.00
21904;BME280;11116;51.554;7.812;2022-09-01T04:45:21;101262.78;;;9.57;100.00
21904;BME280;11116;51.554;7.812;2022-09-01T04:47:52;101263.72;;;9.69;100.00
21904;BME280;11116;51.554;7.812;2022-09-01T04:50:20;101266.13;;;9.72;100.00
21904;BME280;11116;51.554;7.812;2022-09-01T04:53:08;101257.03;;;9.76;100.00
21904;BME280;11116;51.554;7.812;2022-09-01T04:55:41;101265.28;;;9.71;100.00
21904;BME280;11116;51.554;7.812;2022-09-01T04:58:10;101269.28;;;9.64;100.00
21904;BME280;11116;51.554;7.812;2022-09-01T05:00:39;101264.44;;;9.71;100.00
21904;BME280;11116;51.554;7.812;2022-09-01T05:03:06;101251.16;;;9.72;100.00
21904;BME280;11116;51.554;7.812;2022-09-01T05:05:53;101251.47;;;9.80;100.00
21904;BME280;11116;51.554;7.812;2022-09-01T05:08:22;101254.72;;;9.84;100.00
21904;BME280;11116;51.554;7.812;2022-09-01T05:10:50;101250.81;;;9.89;100.00
21904;BME280;11116;51.554;7.812;2022-09-01T05:13:54;101247.00;;;9.93;100.00
21904;BME280;11116;51.554;7.812;2022-09-01T05:16:22;101258.31;;;9.95;100.00
21904;BME280;11116;51.554;7.812;2022-09-01T05:18:50;101254.63;;;9.85;100.00
21904;BME280;11116;51.554;7.812;2022-09-01T05:21:21;101253.53;;;9.88;100.00
21904;BME280;11116;51.554;7.812;2022-09-01T05:23:54;101251.63;;;9.90;100.00
21904;BME280;11116;51.554;7.812;2022-09-01T05:26:24;101250.91;;;9.88;100.00
21904;BME280;11116;51.554;7.812;2022-09-01T05:28:55;101254.63;;;9.85;100.00
21904;BME280;11116;51.554;7.812;2022-09-01T05:31:24;101257.03;;;9.88;100.00
21904;BME280;11116;51.554;7.812;2022-09-01T05:33:53;101255.94;;;10.03;100.00
21904;BME280;11116;51.554;7.812;2022-09-01T05:36:22;101260.47;;;10.27;100.00
21904;BME280;11116;51.554;7.812;2022-09-01T05:38:51;101265.84;;;10.25;100.00
21904;BME280;11116;51.554;7.812;2022-09-01T05:41:20;101255.47;;;10.35;100.00
21904;BME280;11116;51.554;7.812;2022-09-01T05:43:48;101260.94;;;10.44;100.00
21904;BME280;11116;51.554;7.812;2022-09-01T05:46:19;101259.63;;;10.50;100.00
21904;BME280;11116;51.554;7.812;2022-09-01T05:48:49;101263.06;;;10.63;100.00
21904;BME280;11116;51.554;7.812;2022-09-01T05:51:18;101264.91;;;10.73;100.00
21904;BME280;11116;51.554;7.812;2022-09-01T05:53:47;101260.41;;;10.87;100.00
21904;BME280;11116;51.554;7.812;2022-09-01T05:56:16;101266.72;;;11.08;100.00
21904;BME280;11116;51.554;7.812;2022-09-01T05:58:46;101267.47;;;11.21;100.00
21904;BME280;11116;51.554;7.812;2022-09-01T06:01:18;101272.44;;;11.37;100.00
21904;BME280;11116;51.554;7.812;2022-09-01T06:03:49;101265.97;;;11.52;100.00
21904;BME280;11116;51.554;7.812;2022-09-01T06:06:22;101260.94;;;11.60;100.00
21904;BME280;11116;51.554;7.812;2022-09-01T06:08:49;101262.66;;;11.83;100.00
21904;BME280;11116;51.554;7.812;2022-09-01T06:11:16;101259.31;;;11.81;100.00
21904;BME280;11116;51.554;7.812;2022-09-01T06:13:45;101263.50;;;11.95;99.96
21904;BME280;11116;51.554;7.812;2022-09-01T06:16:13;101251.94;;;12.07;99.63
21904;BME280;11116;51.554;7.812;2022-09-01T06:18:41;101260.81;;;12.17;98.88
21904;BME280;11116;51.554;7.812;2022-09-01T06:21:09;101252.97;;;12.26;98.54
21904;BME280;11116;51.554;7.812;2022-09-01T06:23:40;101252.00;;;12.38;97.82
21904;BME280;11116;51.554;7.812;2022-09-01T06:26:16;101255.03;;;12.66;96.53
21904;BME280;11116;51.554;7.812;2022-09-01T06:28:45;101252.81;;;12.82;95.33
21904;BME280;11116;51.554;7.812;2022-09-01T06:31:12;101245.00;;;13.01;93.61
21904;BME280;11116;51.554;7.812;2022-09-01T06:33:39;101245.94;;;13.11;91.52
21904;BME280;11116;51.554;7.812;2022-09-01T06:36:10;101254.69;;;13.23;90.96
21904;BME280;11116;51.554;7.812;2022-09-01T06:38:37;101249.91;;;13.37;89.70
21904;BME280;11116;51.554;7.812;2022-09-01T06:41:05;101244.69;;;13.36;88.86
21904;BME280;11116;51.554;7.812;2022-09-01T06:43:37;101247.28;;;13.47;87.97
21904;BME280;11116;51.554;7.812;2022-09-01T06:46:08;101255.19;;;13.58;87.10
21904;BME280;11116;51.554;7.812;2022-09-01T06:48:35;101253.50;;;13.97;87.01
21904;BME280;11116;51.554;7.812;2022-09-01T06:51:12;101260.09;;;14.02;86.04
21904;BME280;11116;51.554;7.812;2022-09-01T06:53:40;101254.09;;;14.50;85.75
21904;BME280;11116;51.554;7.812;2022-09-01T06:56:10;101256.22;;;14.56;84.06
21904;BME280;11116;51.554;7.812;2022-09-01T06:58:38;101247.97;;;14.59;82.99
21904;BME280;11116;51.554;7.812;2022-09-01T07:01:09;101246.00;;;14.80;82.13
21904;BME280;11116;51.554;7.812;2022-09-01T07:03:46;101244.56;;;14.57;82.00
21904;BME280;11116;51.554;7.812;2022-09-01T07:06:21;101248.09;;;14.86;81.65
21904;BME280;11116;51.554;7.812;2022-09-01T07:09:07;101254.97;;;15.08;80.00
21904;BME280;11116;51.554;7.812;2022-09-01T07:11:37;101252.44;;;14.78;79.61
21904;BME280;11116;51.554;7.812;2022-09-01T07:14:05;101254.78;;;15.19;79.78
21904;BME280;11116;51.554;7.812;2022-09-01T07:16:36;101256.31;;;15.21;78.92
21904;BME280;11116;51.554;7.812;2022-09-01T07:19:06;101255.63;;;15.29;79.42
21904;BME280;11116;51.554;7.812;2022-09-01T07:21:44;101259.94;;;15.40;78.68
21904;BME280;11116;51.554;7.812;2022-09-01T07:24:13;101255.31;;;15.42;78.34
21904;BME280;11116;51.554;7.812;2022-09-01T07:27:03;101253.78;;;15.86;77.23
21904;BME280;11116;51.554;7.812;2022-09-01T07:29:30;101249.88;;;16.34;76.43
21904;BME280;11116;51.554;7.812;2022-09-01T07:32:01;101244.13;;;16.39;74.70
21904;BME280;11116;51.554;7.812;2022-09-01T07:34:28;101244.63;;;16.25;74.77
21904;BME280;11116;51.554;7.812;2022-09-01T07:36:56;101251.75;;;16.07;74.98
21904;BME280;11116;51.554;7.812;2022-09-01T07:39:25;101246.59;;;16.85;74.18
21904;BME280;11116;51.554;7.812;2022-09-01T07:42:12;101240.34;;;16.94;72.70
21904;BME280;11116;51.554;7.812;2022-09-01T07:45:01;101246.06;;;16.64;73.07
21904;BME280;11116;51.554;7.812;2022-09-01T07:47:44;101241.81;;;16.89;72.95
21904;BME280;11116;51.554;7.812;2022-09-01T07:50:12;101235.72;;;17.22;72.39
21904;BME280;11116;51.554;7.812;2022-09-01T07:52:41;101235.81;;;17.13;71.84
21904;BME280;11116;51.554;7.812;2022-09-01T07:55:09;101240.34;;;16.94;72.00
21904;BME280;11116;51.554;7.812;2022-09-01T07:57:37;101233.31;;;17.37;70.71
21904;BME280;11116;51.554;7.812;2022-09-01T08:00:08;101234.38;;;17.44;70.68
21904;BME280;11116;51.554;7.812;2022-09-01T08:02:38;101232.38;;;17.46;70.03
21904;BME280;11116;51.554;7.812;2022-09-01T08:05:09;101234.41;;;17.52;69.82
21904;BME280;11116;51.554;7.812;2022-09-01T08:07:37;101229.25;;;18.26;67.92
21904;BME280;11116;51.554;7.812;2022-09-01T08:10:06;101218.91;;;18.31;67.62
21904;BME280;11116;51.554;7.812;2022-09-01T08:12:37;101219.91;;;18.30;67.62
21904;BME280;11116;51.554;7.812;2022-09-01T08:15:05;101220.78;;;18.47;67.47
21904;BME280;11116;51.554;7.812;2022-09-01T08:17:32;101213.91;;;18.28;66.88
21904;BME280;11116;51.554;7.812;2022-09-01T08:20:04;101222.03;;;18.77;66.03
21904;BME280;11116;51.554;7.812;2022-09-01T08:23:00;101219.81;;;18.64;66.28
21904;BME280;11116;51.554;7.812;2022-09-01T08:25:35;101222.53;;;18.80;65.71
21904;BME280;11116;51.554;7.812;2022-09-01T08:28:04;101220.16;;;18.69;64.92
21904;BME280;11116;51.554;7.812;2022-09-01T08:30:32;101227.69;;;19.22;65.03
21904;BME280;11116;51.554;7.812;2022-09-01T08:33:01;101232.72;;;18.93;65.22
21904;BME280;11116;51.554;7.812;2022-09-01T08:35:29;101220.50;;;18.98;64.72
21904;BME280;11116;51.554;7.812;2022-09-01T08:37:56;101220.84;;;18.79;65.42
21904;BME280;11116;51.554;7.812;2022-09-01T08:40:26;101226.53;;;19.08;64.83
21904;BME280;11116;51.554;7.812;2022-09-01T08:43:03;101225.44;;;19.66;64.82
21904;BME280;11116;51.554;7.812;2022-09-01T08:45:36;101221.41;;;19.78;63.75
21904;BME280;11116;51.554;7.812;2022-09-01T08:48:12;101221.44;;;19.70;62.95
21904;BME280;11116;51.554;7.812;2022-09-01T08:50:41;101218.13;;;19.99;62.75
21904;BME280;11116;51.554;7.812;2022-09-01T08:53:25;101212.81;;;19.83;62.20
21904;BME280;11116;51.554;7.812;2022-09-01T08:55:57;101210.91;;;20.38;62.59
21904;BME280;11116;51.554;7.812;2022-09-01T08:58:27;101207.25;;;20.31;61.96
21904;BME280;11116;51.554;7.812;2022-09-01T09:01:39;101207.94;;;20.56;62.11
21904;BME280;11116;51.554;7.812;2022-09-01T09:04:22;101204.88;;;20.36;61.87
21904;BME280;11116;51.554;7.812;2022-09-01T09:06:56;101205.22;;;20.78;61.98
21904;BME280;11116;51.554;7.812;2022-09-01T09:09:33;101210.47;;;20.49;61.23
21904;BME280;11116;51.554;7.812;2022-09-01T09:12:25;101199.59;;;20.51;62.33
21904;BME280;11116;51.554;7.812;2022-09-01T09:15:10;101197.84;;;20.58;61.54
21904;BME280;11116;51.554;7.812;2022-09-01T09:17:46;101198.69;;;20.96;61.52
21904;BME280;11116;51.554;7.812;2022-09-01T09:20:15;101200.06;;;20.77;61.47
21904;BME280;11116;51.554;7.812;2022-09-01T09:22:44;101194.75;;;20.69;62.31
21904;BME280;11116;51.554;7.812;2022-09-01T09:25:14;101189.03;;;20.72;62.27
21904;BME280;11116;51.554;7.812;2022-09-01T09:27:45;101193.34;;;21.18;61.40
21904;BME280;11116;51.554;7.812;2022-09-01T09:30:15;101192.41;;;20.89;61.94
21904;BME280;11116;51.554;7.812;2022-09-01T09:32:49;101190.47;;;20.97;62.42
21904;BME280;11116;51.554;7.812;2022-09-01T09:35:26;101181.09;;;20.56;61.83
21904;BME280;11116;51.554;7.812;2022-09-01T09:37:54;101178.25;;;21.61;61.00
21904;BME280;11116;51.554;7.812;2022-09-01T09:40:22;101172.22;;;21.15;60.65
21904;BME280;11116;51.554;7.812;2022-09-01T09:43:04;101166.38;;;21.70;60.20
21904;BME280;11116;51.554;7.812;2022-09-01T09:45:34;101168.50;;;22.25;58.98
21904;BME280;11116;51.554;7.812;2022-09-01T09:48:07;101164.91;;;21.38;59.89
21904;BME280;11116;51.554;7.812;2022-09-01T09:50:37;101166.91;;;20.84;60.76
21904;BME280;11116;51.554;7.812;2022-09-01T09:53:16;101166.75;;;21.97;60.81
21904;BME280;11116;51.554;7.812;2022-09-01T09:55:59;101156.09;;;22.45;58.69
21904;BME280;11116;51.554;7.812;2022-09-01T09:58:34;101152.03;;;22.56;58.27
21904;BME280;11116;51.554;7.812;2022-09-01T10:01:06;101153.63;;;22.29;57.98
21904;BME280;11116;51.554;7.812;2022-09-01T10:03:36;101147.63;;;22.27;58.13
21904;BME280;11116;51.554;7.812;2022-09-01T10:06:03;101138.78;;;22.33;57.16
21904;BME280;11116;51.554;7.812;2022-09-01T10:08:37;101133.47;;;22.40;57.16
21904;BME280;11116;51.554;7.812;2022-09-01T10:11:11;101144.03;;;22.41;58.06
21904;BME280;11116;51.554;7.812;2022-09-01T10:13:52;101142.25;;;22.70;57.24
21904;BME280;11116;51.554;7.812;2022-09-01T10:16:25;101125.78;;;22.37;57.24
21904;BME280;11116;51.554;7.812;2022-09-01T10:18:53;101121.34;;;22.29;57.59
21904;BME280;11116;51.554;7.812;2022-09-01T10:21:27;101128.34;;;21.73;57.87
21904;BME280;11116;51.554;7.812;2022-09-01T10:23:57;101114.94;;;22.30;56.78
21904;BME280;11116;51.554;7.812;2022-09-01T10:26:29;101117.41;;;21.89;56.70
21904;BME280;11116;51.554;7.812;2022-09-01T10:29:05;101119.22;;;21.53;57.48
21904;BME280;11116;51.554;7.812;2022-09-01T10:31:34;101107.94;;;21.79;57.44
21904;BME280;11116;51.554;7.812;2022-09-01T10:34:03;101109.50;;;22.66;56.77
21904;BME280;11116;51.554;7.812;2022-09-01T10:36:32;101106.25;;;22.77;55.98
21904;BME280;11116;51.554;7.812;2022-09-01T10:39:00;101114.25;;;22.92;53.65
21904;BME280;11116;51.554;7.812;2022-09-01T10:41:49;101109.41;;;22.60;54.07
21904;BME280;11116;51.554;7.812;2022-09-01T10:44:21;101110.03;;;22.62;54.12
21904;BME280;11116;51.554;7.812;2022-09-01T10:46:50;101097.88;;;22.02;54.49
21904;BME280;11116;51.554;7.812;2022-09-01T10:52:51;101089.22;;;21.71;54.51
21904;BME280;11116;51.554;7.812;2022-09-01T10:55:21;101089.16;;;21.85;54.43
21904;BME280;11116;51.554;7.812;2022-09-01T10:57:54;101103.13;;;21.60;55.00
21904;BME280;11116;51.554;7.812;2022-09-01T11:00:47;101089.09;;;21.79;55.47
21904;BME280;11116;51.554;7.812;2022-09-01T11:03:38;101091.22;;;22.40;54.12
21904;BME280;11116;51.554;7.812;2022-09-01T11:06:06;101099.00;;;22.29;53.48
21904;BME280;11116;51.554;7.812;2022-09-01T11:08:44;101088.53;;;21.98;54.58
21904;BME280;11116;51.554;7.812;2022-09-01T11:11:22;101097.88;;;22.44;54.26
21904;BME280;11116;51.554;7.812;2022-09-01T11:13:52;101087.03;;;21.95;53.95
21904;BME280;11116;51.554;7.812;2022-09-01T11:16:30;101089.63;;;22.46;52.94
21904;BME280;11116;51.554;7.812;2022-09-01T11:22:22;101093.75;;;22.70;51.61
21904;BME280;11116;51.554;7.812;2022-09-01T11:24:52;101092.56;;;22.51;51.79
21904;BME280;11116;51.554;7.812;2022-09-01T11:28:04;101095.63;;;22.27;52.02
21904;BME280;11116;51.554;7.812;2022-09-01T11:30:43;101076.88;;;22.33;50.84
21904;BME280;11116;51.554;7.812;2022-09-01T11:33:36;101083.03;;;22.76;50.01
21904;BME280;11116;51.554;7.812;2022-09-01T11:36:12;101072.63;;;23.35;48.43
21904;BME280;11116;51.554;7.812;2022-09-01T11:38:46;101067.00;;;23.78;48.33
21904;BME280;11116;51.554;7.812;2022-09-01T11:41:23;101067.50;;;24.07;48.39
21904;BME280;11116;51.554;7.812;2022-09-01T11:43:53;101075.31;;;23.35;47.97
21904;BME280;11116;51.554;7.812;2022-09-01T11:46:26;101066.59;;;23.81;48.09
21904;BME280;11116;51.554;7.812;2022-09-01T11:48:56;101077.94;;;23.56;47.68
21904;BME280;11116;51.554;7.812;2022-09-01T11:51:24;101078.00;;;22.94;48.90
21904;BME280;11116;51.554;7.812;2022-09-01T11:53:52;101073.00;;;22.91;48.07
21904;BME280;11116;51.554;7.812;2022-09-01T11:56:26;101080.16;;;22.29;49.49
21904;BME280;11116;51.554;7.812;2022-09-01T11:58:53;101079.69;;;22.25;49.90
21904;BME280;11116;51.554;7.812;2022-09-01T12:01:23;101070.09;;;23.27;48.79
21904;BME280;11116;51.554;7.812;2022-09-01T12:04:17;101067.31;;;23.42;47.21
21904;BME280;11116;51.554;7.812;2022-09-01T12:06:52;101056.94;;;24.12;47.20
21904;BME280;11116;51.554;7.812;2022-09-01T12:09:20;101058.00;;;24.57;46.11
21904;BME280;11116;51.554;7.812;2022-09-01T12:11:47;101049.59;;;23.93;46.60
21904;BME280;11116;51.554;7.812;2022-09-01T12:14:20;101042.13;;;23.95;47.00
21904;BME280;11116;51.554;7.812;2022-09-01T12:16:56;101040.94;;;24.63;45.77
21904;BME280;11116;51.554;7.812;2022-09-01T12:19:27;101051.16;;;24.29;46.14
21904;BME280;11116;51.554;7.812;2022-09-01T12:22:00;101044.25;;;24.65;45.61
21904;BME280;11116;51.554;7.812;2022-09-01T12:24:30;101052.81;;;24.49;46.63
21904;BME280;11116;51.554;7.812;2022-09-01T12:26:58;101042.56;;;24.05;45.89
21904;BME280;11116;51.554;7.812;2022-09-01T12:29:26;101038.28;;;23.57;46.23
21904;BME280;11116;51.554;7.812;2022-09-01T12:31:56;101037.09;;;23.25;46.67
21904;BME280;11116;51.554;7.812;2022-09-01T12:34:30;101038.13;;;23.72;46.77
21904;BME280;11116;51.554;7.812;2022-09-01T12:37:04;101034.31;;;23.46;47.32
21904;BME280;11116;51.554;7.812;2022-09-01T12:39:33;101031.22;;;24.23;45.41
21904;BME280;11116;51.554;7.812;2022-09-01T12:42:07;101019.94;;;24.06;45.51
21904;BME280;11116;51.554;7.812;2022-09-01T12:44:43;101020.84;;;25.23;45.43
21904;BME280;11116;51.554;7.812;2022-09-01T12:47:14;101027.59;;;25.01;44.92
21904;BME280;11116;51.554;7.812;2022-09-01T12:50:31;101024.72;;;24.70;45.43
21904;BME280;11116;51.554;7.812;2022-09-01T12:52:57;101022.44;;;24.67;44.78
21904;BME280;11116;51.554;7.812;2022-09-01T12:55:28;101018.72;;;24.81;45.18
21904;BME280;11116;51.554;7.812;2022-09-01T12:57:57;101019.13;;;24.58;44.71
21904;BME280;11116;51.554;7.812;2022-09-01T13:00:27;101018.09;;;24.53;44.58
21904;BME280;11116;51.554;7.812;2022-09-01T13:03:06;101013.97;;;24.17;45.31
21904;BME280;11116;51.554;7.812;2022-09-01T13:05:34;101004.75;;;24.71;44.94
21904;BME280;11116;51.554;7.812;2022-09-01T13:08:05;101015.28;;;25.12;44.86
21904;BME280;11116;51.554;7.812;2022-09-01T13:10:34;101003.97;;;24.64;44.00
21904;BME280;11116;51.554;7.812;2022-09-01T13:13:02;100997.88;;;24.95;44.00
21904;BME280;11116;51.554;7.812;2022-09-01T13:15:30;100994.78;;;24.78;43.60
21904;BME280;11116;51.554;7.812;2022-09-01T13:17:57;100995.22;;;24.55;43.92